mardi 29 avril 2014

ALERTE SPOTTING 29/04/14

320 D-ABDU Air Berlin / Etihad
   AB8454/AB8155  07h55/08h45

320 F-GHQE Air Corsica (blanc avec titre)
   XK4501/XK4500  07h35/08h30

73H TC-AZP Pegasus
   PC401/PC402  13h15/14h05




E95 EC-KYP Air Europa (sticker)
    UX1297/UX1298  16h40/

319 G-EZBF easyJet (couluer Inverness)
   U24248/U24249   19h55/20h30


 Manque les prévisions de : certains AB / AH / AZ / BA / BE / IB / KM / TP / TU
*** Heures en Local Time **
Prévisions matinales soumises à modifications de dernières minute.
 Voir le log du mois pour la version 'définitive' de la journée: 
 http://www.airkalo.com/ORLYAVIATION/Logdumois.html

le TAF de la journée:

METAR: LFPO 290230Z 21003KT 9999 MIFG NSC 08/07 Q1013 NOSIG=
TAF LONG: LFPO 282300Z 2900/3006 18004KT CAVOK BECMG 2900/2903 4000 BR
PROB30 TEMPO 2903/2908 0800 BCFG BECMG 2907/2909 9999 NSW TEMPO
2910/2918 4000 SHRA SCT015TCU TEMPO 2922/2924 -RA TEMPO 3003/3006
BKN006=